Terminal Aerodrome Forecast
Issued by NWS Mt. Holly, NJ

Home | Current Version | Previous Version | Text Only | Print | Product List | Glossary On
Versions: 1 2 3 4 5 6 7 8 9 10 11 12 13
000
FTUS41 KPHI 280500
TAFTTN
TAF
KTTN 280520Z 2806/2906 VRB03KT P6SM BKN120
     FM281000 25005KT P6SM OVC050
      TEMPO 2810/2814 -SHRA
     FM281700 32007KT 6SM -SHRA BKN025
     FM282300 34006KT P6SM SCT025 OVC120=

USA.gov is the U.S. government's official web portal to all federal, state and local government web resources and services.